createdAt,value
2019-03-31T00:00:03.262Z,0
2019-03-31T00:01:08.980Z,1.1
2019-03-31T00:02:03.886Z,1.1
2019-03-31T00:03:03.051Z,1.1
2019-03-31T00:04:03.036Z,1.1
2019-03-31T00:05:03.062Z,1.1
2019-03-31T00:06:03.645Z,1.1
2019-03-31T00:07:03.154Z,1.1
2019-03-31T00:08:03.882Z,0
2019-03-31T00:09:03.950Z,0
2019-03-31T00:10:04.024Z,0
2019-03-31T00:11:03.106Z,0
2019-03-31T00:12:03.970Z,0
2019-03-31T00:13:04.115Z,1.1
2019-03-31T00:14:03.676Z,0
2019-03-31T00:15:03.913Z,1.1
2019-03-31T00:16:03.886Z,1.1
2019-03-31T00:17:03.690Z,1.1
2019-03-31T00:18:03.236Z,1.1
2019-03-31T00:19:03.611Z,1.1
2019-03-31T00:20:03.503Z,1.1
2019-03-31T00:21:03.328Z,1.1
2019-03-31T00:22:03.306Z,1.1
2019-03-31T00:23:03.527Z,1.1
2019-03-31T00:24:03.237Z,1.1
2019-03-31T00:25:03.374Z,1.1
2019-03-31T00:26:03.030Z,1.1
2019-03-31T00:27:03.244Z,1.1
2019-03-31T00:28:03.397Z,1.1
2019-03-31T00:29:03.131Z,1.1
2019-03-31T00:30:03.436Z,1.1
2019-03-31T00:31:03.427Z,1.1
2019-03-31T00:32:02.797Z,1.1
2019-03-31T00:33:02.938Z,1.1
2019-03-31T00:34:03.025Z,1.1
2019-03-31T00:35:03.192Z,1.1
2019-03-31T00:36:04.016Z,1.1
2019-03-31T00:37:02.781Z,1.1
2019-03-31T00:38:02.879Z,1.1
2019-03-31T00:39:03.860Z,1.1
2019-03-31T00:40:03.878Z,1.1
2019-03-31T00:41:03.692Z,1.1
2019-03-31T00:42:03.943Z,1.1
2019-03-31T00:43:03.652Z,1.1
2019-03-31T00:44:03.706Z,1.1
2019-03-31T00:45:03.586Z,1.1
2019-03-31T00:46:03.475Z,1.1
2019-03-31T00:47:03.475Z,1.1
2019-03-31T00:48:03.497Z,1.1
2019-03-31T00:49:03.561Z,1.1
2019-03-31T00:50:03.193Z,1.1
2019-03-31T00:51:03.352Z,1.1
2019-03-31T00:52:03.307Z,1.1
2019-03-31T00:53:03.277Z,1.1
2019-03-31T00:54:03.250Z,1.1
2019-03-31T00:55:03.559Z,1.1
2019-03-31T00:56:03.192Z,0
2019-03-31T00:57:03.148Z,0
2019-03-31T00:58:03.747Z,1.1
2019-03-31T00:59:03.063Z,2.5
2019-03-31T01:00:03.444Z,2.5
2019-03-31T01:01:02.951Z,1.1
2019-03-31T01:02:03.291Z,1.1
2019-03-31T01:03:03.208Z,1.1
2019-03-31T01:04:03.419Z,1.1
2019-03-31T01:05:03.165Z,1.1
2019-03-31T01:06:03.195Z,1.1
2019-03-31T01:07:03.277Z,1.1
2019-03-31T01:08:03.171Z,1.1
2019-03-31T01:09:03.056Z,1.1
2019-03-31T01:10:03.287Z,0
2019-03-31T01:11:03.854Z,0
2019-03-31T01:12:03.039Z,0
2019-03-31T01:13:03.034Z,0
2019-03-31T01:14:03.776Z,0
2019-03-31T01:15:03.871Z,0
2019-03-31T01:16:03.254Z,0
2019-03-31T01:17:03.954Z,0
2019-03-31T01:18:03.875Z,0
2019-03-31T01:19:03.769Z,1.1
2019-03-31T01:20:03.652Z,0
2019-03-31T01:21:03.381Z,0
2019-03-31T01:22:03.115Z,0
2019-03-31T01:23:03.533Z,0
2019-03-31T01:24:03.289Z,0
2019-03-31T01:25:03.512Z,1.1
2019-03-31T01:26:03.592Z,1.1
2019-03-31T01:27:03.350Z,1.1
2019-03-31T01:28:03.311Z,1.1
2019-03-31T01:29:03.333Z,1.1
2019-03-31T01:30:03.761Z,1.1
2019-03-31T01:31:03.278Z,1.1
2019-03-31T01:32:02.981Z,1.1
2019-03-31T01:33:03.377Z,1.1
2019-03-31T01:34:03.003Z,1.1
2019-03-31T01:35:03.329Z,1.1
2019-03-31T01:36:03.172Z,1.1
2019-03-31T01:37:03.183Z,1.1
2019-03-31T01:38:02.869Z,1.1
2019-03-31T01:39:03.270Z,0
2019-03-31T01:40:02.885Z,0
2019-03-31T01:41:03.275Z,1.1
2019-03-31T01:42:03.957Z,0
2019-03-31T01:43:02.929Z,1.1
2019-03-31T01:44:03.916Z,0
2019-03-31T01:45:03.663Z,0
2019-03-31T01:46:03.776Z,1.1
2019-03-31T01:47:03.839Z,0
2019-03-31T01:48:03.837Z,0
2019-03-31T01:49:03.574Z,0
2019-03-31T01:50:03.744Z,0
2019-03-31T01:51:03.661Z,1.1
2019-03-31T01:52:03.600Z,0
2019-03-31T01:53:03.494Z,1.1
2019-03-31T01:54:03.668Z,1.1
2019-03-31T01:55:03.750Z,0
2019-03-31T01:56:03.079Z,1.1
2019-03-31T01:57:03.419Z,0
2019-03-31T01:58:03.244Z,0
2019-03-31T01:59:03.512Z,0
2019-03-31T02:00:03.516Z,0
2019-03-31T02:01:03.513Z,0
2019-03-31T02:02:05.247Z,0
2019-03-31T02:03:03.840Z,0
2019-03-31T02:04:03.269Z,0
2019-03-31T02:05:03.225Z,0
2019-03-31T02:06:03.212Z,0
2019-03-31T02:07:02.955Z,0
2019-03-31T02:08:03.175Z,0
2019-03-31T02:09:03.798Z,1.1
2019-03-31T02:10:03.140Z,1.1
2019-03-31T02:11:03.066Z,1.1
2019-03-31T02:12:02.838Z,1.1
2019-03-31T02:13:04.339Z,1.1
2019-03-31T02:14:03.177Z,1.1
2019-03-31T02:15:03.045Z,1.1
2019-03-31T02:16:03.091Z,1.1
2019-03-31T02:17:03.842Z,1.1
2019-03-31T02:18:03.661Z,2.5
2019-03-31T02:19:03.768Z,1.1
2019-03-31T02:20:03.692Z,1.1
2019-03-31T02:21:03.811Z,1.1
2019-03-31T02:22:03.791Z,1.1
2019-03-31T02:23:03.887Z,1.1
2019-03-31T02:24:03.724Z,1.1
2019-03-31T02:25:03.803Z,1.1
2019-03-31T02:26:03.823Z,1.1
2019-03-31T02:27:03.484Z,1.1
2019-03-31T02:28:03.543Z,1.1
2019-03-31T02:29:03.548Z,1.1
2019-03-31T02:30:03.696Z,1.1
2019-03-31T02:31:03.604Z,1.1
2019-03-31T02:32:24.884Z,1.1
2019-03-31T02:33:03.282Z,1.1
2019-03-31T02:34:03.461Z,1.1
2019-03-31T02:35:03.433Z,1.1
2019-03-31T02:36:03.247Z,1.1
2019-03-31T02:37:03.137Z,1.1
2019-03-31T02:38:03.093Z,1.1
2019-03-31T02:39:03.058Z,1.1
2019-03-31T02:40:03.139Z,0
2019-03-31T02:41:03.815Z,1.1
2019-03-31T02:42:03.211Z,0
2019-03-31T02:43:03.858Z,1.1
2019-03-31T02:44:03.593Z,1.1
2019-03-31T02:45:04.324Z,1.1
2019-03-31T02:46:04.050Z,1.1
2019-03-31T02:47:03.862Z,1.1
2019-03-31T02:48:03.575Z,1.1
2019-03-31T02:49:03.780Z,1.1
2019-03-31T02:50:03.762Z,1.1
2019-03-31T02:51:03.638Z,1.1
2019-03-31T02:52:03.650Z,0
2019-03-31T02:53:03.629Z,0
2019-03-31T02:54:03.411Z,0
2019-03-31T02:55:03.403Z,0
2019-03-31T02:56:03.462Z,0
2019-03-31T02:57:03.059Z,0
2019-03-31T02:58:03.279Z,0
2019-03-31T02:59:02.912Z,1.1
2019-03-31T03:00:03.545Z,1.1
2019-03-31T03:01:03.282Z,1.1
2019-03-31T03:02:03.279Z,1.1
2019-03-31T03:03:03.220Z,1.1
2019-03-31T03:04:02.878Z,1.1
2019-03-31T03:05:20.774Z,2.5
2019-03-31T03:06:03.094Z,1.1
2019-03-31T03:07:03.028Z,2.5
2019-03-31T03:08:03.779Z,2.5
2019-03-31T03:09:03.055Z,1.1
2019-03-31T03:10:03.707Z,1.1
2019-03-31T03:11:03.751Z,1.1
2019-03-31T03:12:03.874Z,1.1
2019-03-31T03:13:03.909Z,1.1
2019-03-31T03:14:03.886Z,1.1
2019-03-31T03:15:03.726Z,1.1
2019-03-31T03:16:03.474Z,1.1
2019-03-31T03:17:03.638Z,1.1
2019-03-31T03:18:03.484Z,1.1
2019-03-31T03:19:03.374Z,1.1
2019-03-31T03:20:03.595Z,1.1
2019-03-31T03:21:03.576Z,0
2019-03-31T03:22:03.681Z,0
2019-03-31T03:23:03.180Z,0
2019-03-31T03:24:03.448Z,0
2019-03-31T03:25:03.138Z,0
2019-03-31T03:26:03.560Z,0
2019-03-31T03:27:03.217Z,0
2019-03-31T03:28:03.302Z,0
2019-03-31T03:29:03.152Z,1.1
2019-03-31T03:30:03.378Z,1.1
2019-03-31T03:31:15.397Z,1.1
2019-03-31T03:32:04.016Z,1.1
2019-03-31T03:33:20.896Z,1.1
2019-03-31T03:34:03.232Z,1.1
2019-03-31T03:35:03.020Z,0
2019-03-31T03:36:03.787Z,1.1
2019-03-31T03:37:03.754Z,0
2019-03-31T03:38:03.760Z,0
2019-03-31T03:39:03.976Z,0
2019-03-31T03:40:03.775Z,0
2019-03-31T03:41:04.030Z,0
2019-03-31T03:42:03.716Z,0
2019-03-31T03:43:03.726Z,0
2019-03-31T03:44:03.616Z,0
2019-03-31T03:45:03.799Z,1.1
2019-03-31T03:46:04.087Z,1.1
2019-03-31T03:47:03.615Z,1.1
2019-03-31T03:48:03.509Z,0
2019-03-31T03:49:04.062Z,1.1
2019-03-31T03:50:03.602Z,1.1
2019-03-31T03:51:03.344Z,1.1
2019-03-31T03:52:03.348Z,1.1
2019-03-31T03:53:03.464Z,1.1
2019-03-31T03:54:03.382Z,1.1
2019-03-31T03:55:03.501Z,0
2019-03-31T03:56:03.093Z,0
2019-03-31T03:57:03.401Z,0
2019-03-31T03:58:03.382Z,0
2019-03-31T03:59:03.157Z,0
2019-03-31T04:00:02.933Z,0
2019-03-31T04:01:03.261Z,0
2019-03-31T04:02:03.259Z,0
2019-03-31T04:03:04.262Z,0
2019-03-31T04:04:03.045Z,0
2019-03-31T04:05:03.126Z,0
2019-03-31T04:06:03.024Z,0
2019-03-31T04:07:03.736Z,0
2019-03-31T04:08:03.083Z,0
2019-03-31T04:09:02.969Z,0
2019-03-31T04:10:03.017Z,1.1
2019-03-31T04:11:03.916Z,0
2019-03-31T04:12:03.563Z,0
2019-03-31T04:13:03.716Z,0
2019-03-31T04:14:03.801Z,1.1
2019-03-31T04:15:03.850Z,0
2019-03-31T04:16:03.532Z,0
2019-03-31T04:17:03.722Z,0
2019-03-31T04:18:03.535Z,0
2019-03-31T04:19:04.018Z,0
2019-03-31T04:20:03.552Z,0
2019-03-31T04:21:03.675Z,0
2019-03-31T04:22:03.661Z,0
2019-03-31T04:23:03.421Z,1.1
2019-03-31T04:24:03.188Z,0
2019-03-31T04:25:03.407Z,0
2019-03-31T04:26:03.196Z,0
2019-03-31T04:27:02.984Z,0
2019-03-31T04:28:03.089Z,0
2019-03-31T04:29:03.300Z,0
2019-03-31T04:30:03.250Z,0
2019-03-31T04:31:03.920Z,0
2019-03-31T04:32:03.275Z,0
2019-03-31T04:33:03.384Z,0
2019-03-31T04:34:03.330Z,0
2019-03-31T04:35:03.159Z,0
2019-03-31T04:36:03.021Z,0
2019-03-31T04:37:02.907Z,0
2019-03-31T04:38:03.952Z,0
2019-03-31T04:39:03.775Z,0
2019-03-31T04:40:03.680Z,1.1
2019-03-31T04:41:02.942Z,0
2019-03-31T04:42:04.016Z,0
2019-03-31T04:43:03.934Z,0
2019-03-31T04:44:03.606Z,0
2019-03-31T04:45:03.859Z,0
2019-03-31T04:46:03.522Z,0
2019-03-31T04:47:03.626Z,0
2019-03-31T04:48:03.558Z,0
2019-03-31T04:49:03.350Z,1.1
2019-03-31T04:50:03.441Z,0
2019-03-31T04:51:03.227Z,0
2019-03-31T04:52:03.349Z,0
2019-03-31T04:53:03.471Z,0
2019-03-31T04:54:03.454Z,0
2019-03-31T04:55:03.019Z,0
2019-03-31T04:56:03.312Z,0
2019-03-31T04:57:05.040Z,0
2019-03-31T04:58:03.043Z,0
2019-03-31T04:59:03.102Z,1.1
2019-03-31T05:00:03.271Z,2.5
2019-03-31T05:01:02.959Z,1.1
2019-03-31T05:02:03.877Z,1.1
2019-03-31T05:03:03.033Z,2.5
2019-03-31T05:04:05.887Z,1.1
2019-03-31T05:05:04.037Z,2.5
2019-03-31T05:06:03.826Z,1.1
2019-03-31T05:07:03.986Z,2.5
2019-03-31T05:08:03.677Z,2.5
2019-03-31T05:09:03.908Z,2.5
2019-03-31T05:10:03.547Z,2.5
2019-03-31T05:11:02.883Z,2.5
2019-03-31T05:12:03.591Z,2.5
2019-03-31T05:13:03.523Z,2.5
2019-03-31T05:14:03.754Z,1.1
2019-03-31T05:15:03.377Z,1.1
2019-03-31T05:16:03.498Z,1.1
2019-03-31T05:17:03.515Z,1.1
2019-03-31T05:18:04.911Z,1.1
2019-03-31T05:19:03.219Z,1.1
2019-03-31T05:20:03.543Z,1.1
2019-03-31T05:21:03.167Z,1.1
2019-03-31T05:22:03.140Z,1.1
2019-03-31T05:23:02.870Z,2.5
2019-03-31T05:24:03.428Z,2.5
2019-03-31T05:25:03.426Z,2.5
2019-03-31T05:26:03.214Z,2.5
2019-03-31T05:27:03.117Z,1.1
2019-03-31T05:28:03.066Z,1.1
2019-03-31T05:29:02.985Z,1.1
2019-03-31T05:30:04.102Z,1.1
2019-03-31T05:31:03.091Z,1.1
2019-03-31T05:32:03.808Z,1.1
2019-03-31T05:33:03.052Z,1.1
2019-03-31T05:34:19.989Z,1.1
2019-03-31T05:35:03.070Z,0
2019-03-31T05:36:04.152Z,1.1
2019-03-31T05:37:03.789Z,1.1
2019-03-31T05:38:03.785Z,1.1
2019-03-31T05:39:03.814Z,1.1
2019-03-31T05:40:03.721Z,1.1
2019-03-31T05:41:03.314Z,1.1
2019-03-31T05:42:03.637Z,1.1
2019-03-31T05:43:03.522Z,0
2019-03-31T05:44:06.484Z,0
2019-03-31T05:45:03.585Z,0
2019-03-31T05:46:03.688Z,0
2019-03-31T05:47:03.364Z,0
2019-03-31T05:48:03.307Z,1.1
2019-03-31T05:49:03.641Z,0
2019-03-31T05:50:03.154Z,1.1
2019-03-31T05:51:03.244Z,1.1
2019-03-31T05:52:03.198Z,1.1
2019-03-31T05:53:03.154Z,1.1
2019-03-31T05:54:03.710Z,0
2019-03-31T05:55:03.340Z,1.1
2019-03-31T05:56:02.998Z,1.1
2019-03-31T05:57:03.894Z,1.1
2019-03-31T05:58:03.875Z,1.1
2019-03-31T05:59:03.699Z,1.1
2019-03-31T06:00:03.540Z,1.1
2019-03-31T06:01:03.607Z,1.1
2019-03-31T06:02:03.905Z,1.1
2019-03-31T06:03:03.765Z,1.1
2019-03-31T06:04:03.442Z,1.1
2019-03-31T06:05:03.875Z,1.1
2019-03-31T06:06:03.805Z,1.1
2019-03-31T06:07:03.445Z,1.1
2019-03-31T06:08:03.677Z,1.1
2019-03-31T06:09:03.208Z,1.1
2019-03-31T06:10:03.489Z,2.5
2019-03-31T06:11:03.249Z,2.5
2019-03-31T06:12:03.231Z,1.1
2019-03-31T06:13:03.272Z,1.1
2019-03-31T06:14:03.336Z,1.1
2019-03-31T06:15:03.258Z,1.1
2019-03-31T06:16:03.133Z,1.1
2019-03-31T06:17:03.063Z,1.1
2019-03-31T06:18:03.977Z,1.1
2019-03-31T06:19:03.944Z,2.5
2019-03-31T06:20:04.016Z,2.5
2019-03-31T06:21:03.727Z,2.5
2019-03-31T06:22:03.871Z,1.1
2019-03-31T06:23:03.868Z,1.1
2019-03-31T06:24:03.639Z,1.1
2019-03-31T06:25:03.823Z,1.1
2019-03-31T06:26:03.822Z,2.5
2019-03-31T06:27:03.475Z,1.1
2019-03-31T06:28:03.684Z,2.5
2019-03-31T06:29:03.575Z,1.1
2019-03-31T06:30:03.722Z,1.1
2019-03-31T06:31:03.314Z,2.5
2019-03-31T06:32:03.720Z,0
2019-03-31T06:33:03.348Z,1.1
2019-03-31T06:34:03.414Z,0
2019-03-31T06:35:03.520Z,1.1
2019-03-31T06:36:03.275Z,1.1
2019-03-31T06:37:03.150Z,0
2019-03-31T06:38:03.067Z,0
2019-03-31T06:39:03.227Z,0
2019-03-31T06:40:03.992Z,0
2019-03-31T06:41:03.908Z,0
2019-03-31T06:42:03.058Z,0
2019-03-31T06:43:02.963Z,1.1
2019-03-31T06:44:02.964Z,0
2019-03-31T06:45:03.960Z,2.5
2019-03-31T06:46:02.935Z,1.1
2019-03-31T06:47:03.476Z,1.1
2019-03-31T06:48:03.551Z,1.1
2019-03-31T06:49:03.637Z,1.1
2019-03-31T06:50:03.967Z,1.1
2019-03-31T06:51:03.365Z,2.5
2019-03-31T06:52:03.392Z,2.5
2019-03-31T06:53:03.420Z,0
2019-03-31T06:54:03.402Z,2.5
2019-03-31T06:55:03.421Z,3.6
2019-03-31T06:56:03.511Z,0
2019-03-31T06:57:02.945Z,1.1
2019-03-31T06:58:03.038Z,2.5
2019-03-31T06:59:03.320Z,1.1
2019-03-31T07:00:03.476Z,1.1
2019-03-31T07:01:03.220Z,1.1
2019-03-31T07:02:03.919Z,3.6
2019-03-31T07:03:03.103Z,3.6
2019-03-31T07:04:03.051Z,3.6
2019-03-31T07:05:03.759Z,3.6
2019-03-31T07:06:03.660Z,1.1
2019-03-31T07:07:03.737Z,1.1
2019-03-31T07:08:03.685Z,2.5
2019-03-31T07:09:03.546Z,1.1
2019-03-31T07:10:03.806Z,1.1
2019-03-31T07:11:03.800Z,1.1
2019-03-31T07:12:03.367Z,2.5
2019-03-31T07:13:03.787Z,2.5
2019-03-31T07:14:03.733Z,2.5
2019-03-31T07:15:03.701Z,2.5
2019-03-31T07:16:03.632Z,1.1
2019-03-31T07:17:03.727Z,2.5
2019-03-31T07:18:03.325Z,2.5
2019-03-31T07:19:03.165Z,3.6
2019-03-31T07:20:03.172Z,3.6
2019-03-31T07:21:03.369Z,2.5
2019-03-31T07:22:03.340Z,2.5
2019-03-31T07:23:03.217Z,2.5
2019-03-31T07:24:03.311Z,2.5
2019-03-31T07:25:03.303Z,3.6
2019-03-31T07:26:03.095Z,5
2019-03-31T07:27:02.908Z,6.1
2019-03-31T07:28:02.986Z,6.1
2019-03-31T07:29:03.724Z,5
2019-03-31T07:30:07.564Z,7.2
2019-03-31T07:31:03.720Z,5
2019-03-31T07:32:04.161Z,6.1
2019-03-31T07:33:03.912Z,6.1
2019-03-31T07:34:03.936Z,5
2019-03-31T07:35:19.382Z,5
2019-03-31T07:36:03.689Z,5
2019-03-31T07:37:03.753Z,6.1
2019-03-31T07:38:03.446Z,3.6
2019-03-31T07:39:04.176Z,2.5
2019-03-31T07:40:04.455Z,3.6
2019-03-31T07:41:15.038Z,3.6
2019-03-31T07:42:04.908Z,1.1
2019-03-31T07:43:03.953Z,1.1
2019-03-31T07:44:03.480Z,1.1
2019-03-31T07:45:03.400Z,3.6
2019-03-31T07:46:03.299Z,3.6
2019-03-31T07:47:03.011Z,2.5
2019-03-31T07:48:03.420Z,2.5
2019-03-31T07:49:03.038Z,6.1
2019-03-31T07:50:03.680Z,3.6
2019-03-31T07:51:02.883Z,3.6
2019-03-31T07:52:03.478Z,1.1
2019-03-31T07:53:03.021Z,5
2019-03-31T07:54:03.162Z,5
2019-03-31T07:55:03.184Z,3.6
2019-03-31T07:56:03.088Z,3.6
2019-03-31T07:57:03.109Z,1.1
2019-03-31T07:58:03.895Z,3.6
2019-03-31T07:59:03.399Z,5
2019-03-31T08:00:03.946Z,3.6
2019-03-31T08:01:03.039Z,2.5
2019-03-31T08:02:03.603Z,2.5
2019-03-31T08:03:03.162Z,2.5
2019-03-31T08:04:03.530Z,2.5
2019-03-31T08:05:03.916Z,2.5
2019-03-31T08:06:03.636Z,2.5
2019-03-31T08:07:03.351Z,2.5
2019-03-31T08:08:03.474Z,2.5
2019-03-31T08:09:03.617Z,7.2
2019-03-31T08:10:03.638Z,3.6
2019-03-31T08:11:03.136Z,3.6
2019-03-31T08:12:03.300Z,2.5
2019-03-31T08:13:03.255Z,0
2019-03-31T08:14:03.063Z,1.1
2019-03-31T08:15:03.357Z,2.5
2019-03-31T08:16:02.781Z,2.5
2019-03-31T08:17:03.047Z,5
2019-03-31T08:18:03.750Z,2.5
2019-03-31T08:19:03.097Z,2.5
2019-03-31T08:20:02.985Z,2.5
2019-03-31T08:21:03.923Z,0
2019-03-31T08:22:03.610Z,1.1
2019-03-31T08:23:03.836Z,1.1
2019-03-31T08:24:07.223Z,1.1
2019-03-31T08:25:03.806Z,0
2019-03-31T08:26:03.562Z,0
2019-03-31T08:27:06.022Z,2.5
2019-03-31T08:28:03.145Z,2.5
2019-03-31T08:29:03.759Z,0
2019-03-31T08:30:03.711Z,2.5
2019-03-31T08:31:03.132Z,0
2019-03-31T08:32:03.468Z,0
2019-03-31T08:33:03.463Z,0
2019-03-31T08:34:03.486Z,0
2019-03-31T08:35:03.357Z,0
2019-03-31T08:36:03.592Z,0
2019-03-31T08:37:03.110Z,0
2019-03-31T08:38:03.378Z,1.1
2019-03-31T08:39:03.043Z,2.5
2019-03-31T08:40:03.319Z,3.6
2019-03-31T08:41:03.870Z,5
2019-03-31T08:42:03.836Z,3.6
2019-03-31T08:43:02.944Z,2.5
2019-03-31T08:44:03.892Z,0
2019-03-31T08:45:02.904Z,2.5
2019-03-31T08:46:03.866Z,0
2019-03-31T08:47:03.846Z,1.1
2019-03-31T08:48:03.715Z,3.6
2019-03-31T08:49:03.414Z,2.5
2019-03-31T08:50:03.746Z,1.1
2019-03-31T08:51:03.629Z,0
2019-03-31T08:52:03.345Z,0
2019-03-31T08:53:03.418Z,0
2019-03-31T08:54:03.580Z,0
2019-03-31T08:55:03.516Z,0
2019-03-31T08:56:03.423Z,0
2019-03-31T08:57:03.424Z,0
2019-03-31T08:58:03.269Z,1.1
2019-03-31T08:59:03.208Z,0
2019-03-31T09:00:03.058Z,1.1
2019-03-31T09:01:03.131Z,1.1
2019-03-31T09:02:03.990Z,1.1
2019-03-31T09:03:03.052Z,1.1
2019-03-31T09:04:02.863Z,1.1
2019-03-31T09:05:03.980Z,2.5
2019-03-31T09:06:03.890Z,0
2019-03-31T09:07:03.873Z,1.1
2019-03-31T09:08:03.901Z,0
2019-03-31T09:09:03.796Z,1.1
2019-03-31T09:10:03.468Z,0
2019-03-31T09:11:03.618Z,0
2019-03-31T09:12:03.571Z,1.1
2019-03-31T09:13:03.539Z,0
2019-03-31T09:14:03.509Z,0
2019-03-31T09:15:03.782Z,0
2019-03-31T09:16:03.485Z,1.1
2019-03-31T09:17:03.465Z,1.1
2019-03-31T09:18:03.435Z,1.1
2019-03-31T09:19:03.457Z,0
2019-03-31T09:20:03.614Z,0
2019-03-31T09:21:03.443Z,0
2019-03-31T09:22:03.449Z,0
2019-03-31T09:23:02.987Z,0
2019-03-31T09:24:03.178Z,0
2019-03-31T09:25:03.036Z,1.1
2019-03-31T09:26:03.185Z,0
2019-03-31T09:27:03.056Z,0
2019-03-31T09:28:02.917Z,0
2019-03-31T09:29:03.029Z,0
2019-03-31T09:30:03.554Z,0
2019-03-31T09:31:02.868Z,1.1
2019-03-31T09:32:03.810Z,1.1
2019-03-31T09:33:03.629Z,1.1
2019-03-31T09:34:03.741Z,1.1
2019-03-31T09:35:03.715Z,0
2019-03-31T09:36:17.274Z,0
2019-03-31T09:37:03.505Z,0
2019-03-31T09:38:03.438Z,1.1
2019-03-31T09:39:03.503Z,2.5
2019-03-31T09:40:03.239Z,2.5
2019-03-31T09:41:03.568Z,3.6
2019-03-31T09:42:03.268Z,2.5
2019-03-31T09:43:03.309Z,0
2019-03-31T09:44:03.495Z,0
2019-03-31T09:45:03.711Z,1.1
2019-03-31T09:46:03.328Z,0
2019-03-31T09:47:03.466Z,1.1
2019-03-31T09:48:03.356Z,0
2019-03-31T09:49:03.399Z,2.5
2019-03-31T09:50:03.527Z,2.5
2019-03-31T09:51:03.160Z,1.1
2019-03-31T09:52:03.099Z,2.5
2019-03-31T09:53:03.159Z,2.5
2019-03-31T09:54:02.971Z,0
2019-03-31T09:55:03.027Z,0
2019-03-31T09:56:02.950Z,0
2019-03-31T09:57:03.292Z,1.1
2019-03-31T09:58:03.074Z,0
2019-03-31T09:59:02.934Z,1.1
2019-03-31T10:00:03.413Z,1.1
2019-03-31T10:01:02.941Z,0
2019-03-31T10:02:03.401Z,0
2019-03-31T10:03:03.152Z,0
2019-03-31T10:04:02.996Z,0
2019-03-31T10:05:03.458Z,0
2019-03-31T10:06:11.644Z,0
2019-03-31T10:07:03.045Z,0
2019-03-31T10:08:02.847Z,0
2019-03-31T10:09:03.243Z,2.5
2019-03-31T10:10:03.756Z,3.6
2019-03-31T10:11:03.965Z,3.6
2019-03-31T10:12:03.568Z,3.6
2019-03-31T10:13:03.936Z,6.1
2019-03-31T10:14:03.570Z,3.6
2019-03-31T10:15:03.793Z,1.1
2019-03-31T10:16:03.889Z,2.5
2019-03-31T10:17:03.350Z,2.5
2019-03-31T10:18:03.504Z,1.1
2019-03-31T10:19:03.320Z,1.1
2019-03-31T10:20:03.808Z,0
2019-03-31T10:21:03.398Z,0
2019-03-31T10:22:03.552Z,0
2019-03-31T10:23:03.396Z,0
2019-03-31T10:24:03.229Z,2.5
2019-03-31T10:25:03.015Z,1.1
2019-03-31T10:26:03.178Z,2.5
2019-03-31T10:27:03.287Z,0
2019-03-31T10:28:03.154Z,0
2019-03-31T10:29:03.143Z,0
2019-03-31T10:30:03.640Z,1.1
2019-03-31T10:31:03.276Z,0
2019-03-31T10:32:03.232Z,1.1
2019-03-31T10:33:03.047Z,0
2019-03-31T10:34:02.969Z,0
2019-03-31T10:35:02.901Z,1.1
2019-03-31T10:36:03.025Z,3.6
2019-03-31T10:37:03.027Z,5
2019-03-31T10:38:03.758Z,7.2
2019-03-31T10:39:02.998Z,3.6
2019-03-31T10:40:03.869Z,1.1
2019-03-31T10:41:03.851Z,2.5
2019-03-31T10:42:03.732Z,1.1
2019-03-31T10:43:03.518Z,2.5
2019-03-31T10:44:04.295Z,1.1
2019-03-31T10:45:03.637Z,5
2019-03-31T10:46:03.568Z,1.1
2019-03-31T10:47:03.451Z,3.6
2019-03-31T10:48:03.498Z,1.1
2019-03-31T10:49:03.258Z,0
2019-03-31T10:50:03.286Z,3.6
2019-03-31T10:51:03.478Z,0
2019-03-31T10:52:03.378Z,2.5
2019-03-31T10:53:03.017Z,1.1
2019-03-31T10:54:05.113Z,1.1
2019-03-31T10:55:03.132Z,0
2019-03-31T10:56:03.852Z,2.5
2019-03-31T10:57:03.152Z,2.5
2019-03-31T10:58:03.147Z,2.5
2019-03-31T10:59:02.968Z,5
2019-03-31T11:00:03.736Z,11.2
2019-03-31T11:01:04.220Z,6.1
2019-03-31T11:02:03.893Z,7.2
2019-03-31T11:03:03.766Z,7.2
2019-03-31T11:04:03.938Z,0
2019-03-31T11:05:03.795Z,7.2
2019-03-31T11:06:03.417Z,1.1
2019-03-31T11:07:04.155Z,1.1
2019-03-31T11:08:03.507Z,2.5
2019-03-31T11:09:03.785Z,6.1
2019-03-31T11:10:03.551Z,3.6
2019-03-31T11:11:03.218Z,5
2019-03-31T11:12:03.546Z,3.6
2019-03-31T11:13:03.432Z,1.1
2019-03-31T11:14:03.505Z,3.6
2019-03-31T11:15:03.486Z,6.1
2019-03-31T11:16:03.561Z,5
2019-03-31T11:17:03.433Z,2.5
2019-03-31T11:18:03.506Z,2.5
2019-03-31T11:19:03.491Z,0
2019-03-31T11:20:03.377Z,1.1
2019-03-31T11:21:03.009Z,2.5
2019-03-31T11:22:03.381Z,6.1
2019-03-31T11:23:03.159Z,5
2019-03-31T11:24:04.276Z,5
2019-03-31T11:25:03.210Z,5
2019-03-31T11:26:03.903Z,5
2019-03-31T11:27:03.660Z,2.5
2019-03-31T11:28:03.694Z,2.5
2019-03-31T11:29:03.238Z,1.1
2019-03-31T11:30:03.732Z,1.1
2019-03-31T11:31:02.981Z,0
2019-03-31T11:32:03.499Z,0
2019-03-31T11:33:03.134Z,1.1
2019-03-31T11:34:03.557Z,3.6
2019-03-31T11:35:03.764Z,3.6
2019-03-31T11:36:03.770Z,2.5
2019-03-31T11:37:14.484Z,2.5
2019-03-31T11:38:03.584Z,2.5
2019-03-31T11:39:03.686Z,1.1
2019-03-31T11:40:03.861Z,0
2019-03-31T11:41:03.555Z,1.1
2019-03-31T11:42:03.812Z,5
2019-03-31T11:43:03.345Z,2.5
2019-03-31T11:44:03.464Z,6.1
2019-03-31T11:45:03.430Z,6.1
2019-03-31T11:46:03.814Z,3.6
2019-03-31T11:47:03.146Z,3.6
2019-03-31T11:48:03.182Z,5
2019-03-31T11:49:03.018Z,6.1
2019-03-31T11:50:03.303Z,5
2019-03-31T11:51:03.022Z,5
2019-03-31T11:52:03.004Z,7.2
2019-03-31T11:53:03.210Z,6.1
2019-03-31T11:54:02.857Z,3.6
2019-03-31T11:55:03.051Z,5
2019-03-31T11:56:03.882Z,3.6
2019-03-31T11:57:03.845Z,2.5
2019-03-31T11:58:03.933Z,5
2019-03-31T11:59:03.231Z,6.1
2019-03-31T12:00:03.822Z,2.5
2019-03-31T12:01:03.030Z,1.1
2019-03-31T12:02:03.741Z,1.1
2019-03-31T12:03:03.771Z,1.1
2019-03-31T12:04:03.032Z,1.1
2019-03-31T12:05:06.604Z,1.1
2019-03-31T12:06:03.858Z,1.1
2019-03-31T12:07:03.628Z,1.1
2019-03-31T12:08:03.793Z,1.1
2019-03-31T12:09:03.578Z,13.3
2019-03-31T12:10:03.607Z,8.6
2019-03-31T12:11:03.609Z,6.1
2019-03-31T12:12:03.853Z,6.1
2019-03-31T12:13:03.487Z,12.2
2019-03-31T12:14:03.544Z,11.2
2019-03-31T12:15:03.525Z,11.2
2019-03-31T12:16:03.447Z,9.7
2019-03-31T12:17:03.832Z,5
2019-03-31T12:18:03.485Z,9.7
2019-03-31T12:19:03.471Z,11.2
2019-03-31T12:20:03.503Z,7.2
2019-03-31T12:21:03.543Z,2.5
2019-03-31T12:22:03.443Z,7.2
2019-03-31T12:23:03.308Z,6.1
2019-03-31T12:24:03.154Z,2.5
2019-03-31T12:25:03.051Z,6.1
2019-03-31T12:26:03.140Z,5
2019-03-31T12:27:02.845Z,9.7
2019-03-31T12:28:03.878Z,7.2
2019-03-31T12:29:03.901Z,3.6
2019-03-31T12:30:02.787Z,0
2019-03-31T12:31:03.878Z,0
2019-03-31T12:32:03.075Z,2.5
2019-03-31T12:33:03.743Z,5
2019-03-31T12:34:03.953Z,5
2019-03-31T12:35:03.812Z,3.6
2019-03-31T12:36:04.010Z,2.5
2019-03-31T12:37:04.012Z,3.6
2019-03-31T12:38:03.523Z,2.5
2019-03-31T12:39:03.454Z,5
2019-03-31T12:40:03.661Z,3.6
2019-03-31T12:41:03.460Z,7.2
2019-03-31T12:42:03.778Z,2.5
2019-03-31T12:43:03.450Z,1.1
2019-03-31T12:44:03.378Z,0
2019-03-31T12:45:03.299Z,0
2019-03-31T12:46:03.291Z,0
2019-03-31T12:47:03.219Z,1.1
2019-03-31T12:48:03.251Z,0
2019-03-31T12:49:03.210Z,0
2019-03-31T12:50:03.149Z,1.1
2019-03-31T12:51:03.124Z,3.6
2019-03-31T12:52:03.303Z,6.1
2019-03-31T12:53:02.814Z,6.1
2019-03-31T12:54:02.974Z,7.2
2019-03-31T12:55:02.952Z,5
2019-03-31T12:56:02.962Z,3.6
2019-03-31T12:57:04.031Z,6.1
2019-03-31T12:58:03.790Z,2.5
2019-03-31T12:59:03.908Z,2.5
2019-03-31T13:00:03.896Z,6.1
2019-03-31T13:01:03.749Z,5
2019-03-31T13:02:03.631Z,5
2019-03-31T13:03:03.785Z,6.1
2019-03-31T13:04:03.814Z,7.2
2019-03-31T13:05:03.834Z,7.2
2019-03-31T13:06:03.542Z,3.6
2019-03-31T13:07:03.442Z,5
2019-03-31T13:08:03.350Z,6.1
2019-03-31T13:09:03.809Z,5
2019-03-31T13:10:03.455Z,3.6
2019-03-31T13:11:03.713Z,2.5
2019-03-31T13:12:03.544Z,2.5
2019-03-31T13:13:03.326Z,5
2019-03-31T13:14:03.159Z,0
2019-03-31T13:15:03.499Z,0
2019-03-31T13:16:03.235Z,1.1
2019-03-31T13:17:02.091Z,0
2019-03-31T13:18:03.081Z,0
2019-03-31T13:19:02.966Z,1.1
2019-03-31T13:20:02.970Z,2.5
2019-03-31T13:21:03.082Z,2.5
2019-03-31T13:22:03.024Z,5
2019-03-31T13:23:03.116Z,8.6
2019-03-31T13:24:03.311Z,6.1
2019-03-31T13:25:03.381Z,2.5
2019-03-31T13:26:02.969Z,6.1
2019-03-31T13:27:03.234Z,6.1
2019-03-31T13:28:06.456Z,5
2019-03-31T13:29:02.793Z,2.5
2019-03-31T13:30:03.114Z,0
2019-03-31T13:31:02.896Z,1.1
2019-03-31T13:32:03.932Z,1.1
2019-03-31T13:33:03.316Z,2.5
2019-03-31T13:34:03.576Z,2.5
2019-03-31T13:35:03.204Z,3.6
2019-03-31T13:36:03.166Z,2.5
2019-03-31T13:37:02.933Z,2.5
2019-03-31T13:38:12.030Z,7.2
2019-03-31T13:39:04.526Z,9.7
2019-03-31T13:40:03.559Z,5
2019-03-31T13:41:03.288Z,3.6
2019-03-31T13:42:03.123Z,6.1
2019-03-31T13:43:03.233Z,7.2
2019-03-31T13:44:03.159Z,6.1
2019-03-31T13:45:03.240Z,5
2019-03-31T13:46:03.132Z,9.7
2019-03-31T13:47:03.152Z,5
2019-03-31T13:48:03.043Z,5
2019-03-31T13:49:03.024Z,2.5
2019-03-31T13:50:02.982Z,1.1
2019-03-31T13:51:03.026Z,1.1
2019-03-31T13:52:03.740Z,3.6
2019-03-31T13:53:03.801Z,3.6
2019-03-31T13:54:03.773Z,3.6
2019-03-31T13:55:03.553Z,3.6
2019-03-31T13:56:03.501Z,3.6
2019-03-31T13:57:05.394Z,1.1
2019-03-31T13:58:10.944Z,3.6
2019-03-31T13:59:03.650Z,5
2019-03-31T14:00:03.557Z,5
2019-03-31T14:01:03.459Z,5
2019-03-31T14:02:03.354Z,5
2019-03-31T14:03:03.182Z,5
2019-03-31T14:04:04.196Z,5
2019-03-31T14:05:03.239Z,5